sensor_id;sensor_type;location;lat;lon;timestamp;P1;durP1;ratioP1;P2;durP2;ratioP2
31002;SDS011;23051;-6.372;106.786;2022-08-21T00:00:51;8.95;;;2.92;;
31002;SDS011;23051;-6.372;106.786;2022-08-21T00:02:58;1.63;;;1.40;;
31002;SDS011;23051;-6.372;106.786;2022-08-21T00:04:59;6.63;;;2.08;;
31002;SDS011;23051;-6.372;106.786;2022-08-21T00:07:04;1.58;;;1.48;;
31002;SDS011;23051;-6.372;106.786;2022-08-21T00:09:06;3.63;;;2.33;;
31002;SDS011;23051;-6.372;106.786;2022-08-21T00:11:08;1.92;;;1.67;;
31002;SDS011;23051;-6.372;106.786;2022-08-21T00:13:11;2.42;;;1.27;;
31002;SDS011;23051;-6.372;106.786;2022-08-21T00:15:15;1.85;;;1.67;;
31002;SDS011;23051;-6.372;106.786;2022-08-21T00:17:18;3.00;;;1.52;;
31002;SDS011;23051;-6.372;106.786;2022-08-21T00:19:19;13.57;;;2.50;;
31002;SDS011;23051;-6.372;106.786;2022-08-21T00:21:27;6.68;;;2.20;;
31002;SDS011;23051;-6.372;106.786;2022-08-21T00:23:33;4.88;;;1.25;;
31002;SDS011;23051;-6.372;106.786;2022-08-21T00:25:36;1.77;;;1.15;;
31002;SDS011;23051;-6.372;106.786;2022-08-21T00:27:40;1.65;;;1.50;;
31002;SDS011;23051;-6.372;106.786;2022-08-21T00:29:43;1.63;;;1.48;;
31002;SDS011;23051;-6.372;106.786;2022-08-21T00:31:47;1.98;;;1.77;;
31002;SDS011;23051;-6.372;106.786;2022-08-21T00:33:49;1.60;;;1.38;;
31002;SDS011;23051;-6.372;106.786;2022-08-21T00:35:53;1.13;;;1.13;;
31002;SDS011;23051;-6.372;106.786;2022-08-21T00:37:57;5.50;;;1.40;;
31002;SDS011;23051;-6.372;106.786;2022-08-21T00:39:59;3.67;;;2.60;;
31002;SDS011;23051;-6.372;106.786;2022-08-21T00:42:03;8.07;;;1.88;;
31002;SDS011;23051;-6.372;106.786;2022-08-21T00:44:09;2.08;;;0.60;;
31002;SDS011;23051;-6.372;106.786;2022-08-21T00:46:13;1.05;;;1.05;;
31002;SDS011;23051;-6.372;106.786;2022-08-21T00:48:14;4.57;;;1.58;;
31002;SDS011;23051;-6.372;106.786;2022-08-21T00:50:16;1.67;;;1.58;;
31002;SDS011;23051;-6.372;106.786;2022-08-21T00:52:21;1.58;;;1.48;;
31002;SDS011;23051;-6.372;106.786;2022-08-21T00:54:25;2.25;;;1.92;;
31002;SDS011;23051;-6.372;106.786;2022-08-21T00:56:28;1.35;;;1.17;;
31002;SDS011;23051;-6.372;106.786;2022-08-21T00:58:32;1.73;;;1.63;;
31002;SDS011;23051;-6.372;106.786;2022-08-21T01:00:37;3.67;;;1.67;;
31002;SDS011;23051;-6.372;106.786;2022-08-21T01:06:46;1.58;;;1.00;;
31002;SDS011;23051;-6.372;106.786;2022-08-21T01:08:47;6.97;;;1.67;;
31002;SDS011;23051;-6.372;106.786;2022-08-21T01:10:50;3.55;;;2.10;;
31002;SDS011;23051;-6.372;106.786;2022-08-21T01:12:52;2.83;;;1.95;;
31002;SDS011;23051;-6.372;106.786;2022-08-21T01:14:55;2.78;;;2.30;;
31002;SDS011;23051;-6.372;106.786;2022-08-21T01:16:59;3.95;;;2.80;;
31002;SDS011;23051;-6.372;106.786;2022-08-21T01:19:06;5.25;;;2.47;;
31002;SDS011;23051;-6.372;106.786;2022-08-21T01:21:12;1.90;;;1.80;;
31002;SDS011;23051;-6.372;106.786;2022-08-21T01:23:17;3.10;;;2.58;;
31002;SDS011;23051;-6.372;106.786;2022-08-21T01:25:18;13.32;;;3.35;;
31002;SDS011;23051;-6.372;106.786;2022-08-21T01:27:21;1.42;;;1.25;;
31002;SDS011;23051;-6.372;106.786;2022-08-21T01:31:31;2.47;;;2.28;;
31002;SDS011;23051;-6.372;106.786;2022-08-21T01:33:33;8.20;;;3.25;;
31002;SDS011;23051;-6.372;106.786;2022-08-21T01:35:37;4.20;;;3.10;;
31002;SDS011;23051;-6.372;106.786;2022-08-21T01:37:41;2.30;;;1.67;;
31002;SDS011;23051;-6.372;106.786;2022-08-21T01:39:43;2.50;;;2.30;;
31002;SDS011;23051;-6.372;106.786;2022-08-21T01:41:47;3.67;;;2.30;;
31002;SDS011;23051;-6.372;106.786;2022-08-21T01:43:49;1.63;;;1.27;;
31002;SDS011;23051;-6.372;106.786;2022-08-21T01:45:50;2.80;;;2.53;;
31002;SDS011;23051;-6.372;106.786;2022-08-21T01:47:52;4.18;;;1.85;;
31002;SDS011;23051;-6.372;106.786;2022-08-21T01:49:54;2.38;;;2.03;;
31002;SDS011;23051;-6.372;106.786;2022-08-21T01:51:58;3.92;;;2.92;;
31002;SDS011;23051;-6.372;106.786;2022-08-21T01:53:59;8.05;;;2.10;;
31002;SDS011;23051;-6.372;106.786;2022-08-21T01:56:01;7.13;;;2.53;;
31002;SDS011;23051;-6.372;106.786;2022-08-21T02:02:07;5.13;;;2.92;;
31002;SDS011;23051;-6.372;106.786;2022-08-21T02:04:12;3.83;;;2.72;;
31002;SDS011;23051;-6.372;106.786;2022-08-21T02:06:18;3.35;;;2.97;;
31002;SDS011;23051;-6.372;106.786;2022-08-21T02:08:22;2.15;;;1.77;;
31002;SDS011;23051;-6.372;106.786;2022-08-21T02:10:27;4.95;;;2.75;;
31002;SDS011;23051;-6.372;106.786;2022-08-21T02:12:31;3.00;;;1.58;;
31002;SDS011;23051;-6.372;106.786;2022-08-21T02:14:38;2.38;;;2.22;;
31002;SDS011;23051;-6.372;106.786;2022-08-21T02:16:44;2.80;;;2.10;;
31002;SDS011;23051;-6.372;106.786;2022-08-21T02:18:48;5.80;;;2.47;;
31002;SDS011;23051;-6.372;106.786;2022-08-21T02:20:52;3.25;;;2.40;;
31002;SDS011;23051;-6.372;106.786;2022-08-21T02:22:54;3.25;;;1.65;;
31002;SDS011;23051;-6.372;106.786;2022-08-21T02:24:56;2.35;;;1.98;;
31002;SDS011;23051;-6.372;106.786;2022-08-21T02:26:58;2.28;;;2.08;;
31002;SDS011;23051;-6.372;106.786;2022-08-21T02:28:59;2.72;;;2.53;;
31002;SDS011;23051;-6.372;106.786;2022-08-21T02:31:01;3.40;;;2.55;;
31002;SDS011;23051;-6.372;106.786;2022-08-21T02:33:07;6.65;;;3.63;;
31002;SDS011;23051;-6.372;106.786;2022-08-21T02:35:13;3.10;;;2.63;;
31002;SDS011;23051;-6.372;106.786;2022-08-21T02:37:17;9.48;;;2.38;;
31002;SDS011;23051;-6.372;106.786;2022-08-21T02:39:19;3.35;;;2.33;;
31002;SDS011;23051;-6.372;106.786;2022-08-21T02:41:23;6.57;;;2.78;;
31002;SDS011;23051;-6.372;106.786;2022-08-21T02:43:26;4.95;;;3.15;;
31002;SDS011;23051;-6.372;106.786;2022-08-21T02:45:28;3.00;;;2.72;;
31002;SDS011;23051;-6.372;106.786;2022-08-21T02:47:30;3.17;;;1.65;;
31002;SDS011;23051;-6.372;106.786;2022-08-21T02:49:31;2.78;;;2.58;;
31002;SDS011;23051;-6.372;106.786;2022-08-21T02:51:35;12.43;;;4.13;;
31002;SDS011;23051;-6.372;106.786;2022-08-21T02:53:37;11.63;;;3.75;;
31002;SDS011;23051;-6.372;106.786;2022-08-21T02:55:44;2.80;;;2.55;;
31002;SDS011;23051;-6.372;106.786;2022-08-21T02:57:47;12.10;;;3.40;;
31002;SDS011;23051;-6.372;106.786;2022-08-21T02:59:48;6.35;;;2.92;;
31002;SDS011;23051;-6.372;106.786;2022-08-21T03:01:52;2.38;;;2.05;;
31002;SDS011;23051;-6.372;106.786;2022-08-21T03:03:56;6.97;;;4.55;;
31002;SDS011;23051;-6.372;106.786;2022-08-21T03:06:00;7.47;;;4.75;;
31002;SDS011;23051;-6.372;106.786;2022-08-21T03:08:03;4.88;;;4.03;;
31002;SDS011;23051;-6.372;106.786;2022-08-21T03:10:08;4.78;;;3.08;;
31002;SDS011;23051;-6.372;106.786;2022-08-21T03:12:14;7.95;;;5.00;;
31002;SDS011;23051;-6.372;106.786;2022-08-21T03:14:18;6.53;;;2.95;;
31002;SDS011;23051;-6.372;106.786;2022-08-21T03:16:19;5.18;;;2.20;;
31002;SDS011;23051;-6.372;106.786;2022-08-21T03:18:21;2.55;;;2.35;;
31002;SDS011;23051;-6.372;106.786;2022-08-21T03:20:25;6.03;;;2.60;;
31002;SDS011;23051;-6.372;106.786;2022-08-21T03:24:29;4.28;;;3.83;;
31002;SDS011;23051;-6.372;106.786;2022-08-21T03:26:31;4.78;;;3.35;;
31002;SDS011;23051;-6.372;106.786;2022-08-21T03:28:35;6.32;;;2.67;;
31002;SDS011;23051;-6.372;106.786;2022-08-21T03:30:40;2.30;;;2.08;;
31002;SDS011;23051;-6.372;106.786;2022-08-21T03:32:41;3.83;;;3.45;;
31002;SDS011;23051;-6.372;106.786;2022-08-21T03:34:45;6.63;;;3.50;;
31002;SDS011;23051;-6.372;106.786;2022-08-21T03:36:48;4.25;;;2.42;;
31002;SDS011;23051;-6.372;106.786;2022-08-21T03:38:50;12.40;;;3.30;;
31002;SDS011;23051;-6.372;106.786;2022-08-21T03:40:54;4.45;;;3.67;;
31002;SDS011;23051;-6.372;106.786;2022-08-21T03:42:55;10.63;;;4.80;;
31002;SDS011;23051;-6.372;106.786;2022-08-21T03:45:00;9.15;;;5.97;;
31002;SDS011;23051;-6.372;106.786;2022-08-21T03:47:04;6.67;;;3.93;;
31002;SDS011;23051;-6.372;106.786;2022-08-21T03:49:06;8.98;;;4.85;;
31002;SDS011;23051;-6.372;106.786;2022-08-21T03:51:10;4.40;;;3.10;;
31002;SDS011;23051;-6.372;106.786;2022-08-21T03:53:12;6.57;;;3.80;;
31002;SDS011;23051;-6.372;106.786;2022-08-21T03:55:15;7.00;;;3.38;;
31002;SDS011;23051;-6.372;106.786;2022-08-21T03:59:20;8.95;;;5.60;;
31002;SDS011;23051;-6.372;106.786;2022-08-21T04:01:25;9.63;;;3.42;;
31002;SDS011;23051;-6.372;106.786;2022-08-21T04:03:36;6.25;;;5.32;;
31002;SDS011;23051;-6.372;106.786;2022-08-21T04:05:40;4.50;;;4.03;;
31002;SDS011;23051;-6.372;106.786;2022-08-21T04:07:45;6.15;;;2.95;;
31002;SDS011;23051;-6.372;106.786;2022-08-21T04:09:49;5.82;;;3.88;;
31002;SDS011;23051;-6.372;106.786;2022-08-21T04:11:51;13.60;;;4.57;;
31002;SDS011;23051;-6.372;106.786;2022-08-21T04:13:55;9.13;;;5.13;;
31002;SDS011;23051;-6.372;106.786;2022-08-21T04:15:58;9.43;;;3.38;;
31002;SDS011;23051;-6.372;106.786;2022-08-21T04:18:01;6.80;;;3.63;;
31002;SDS011;23051;-6.372;106.786;2022-08-21T04:20:05;6.80;;;4.40;;
31002;SDS011;23051;-6.372;106.786;2022-08-21T04:24:16;3.67;;;2.90;;
31002;SDS011;23051;-6.372;106.786;2022-08-21T04:26:22;7.63;;;4.85;;
31002;SDS011;23051;-6.372;106.786;2022-08-21T04:28:24;8.52;;;5.50;;
31002;SDS011;23051;-6.372;106.786;2022-08-21T04:30:31;8.15;;;4.03;;
31002;SDS011;23051;-6.372;106.786;2022-08-21T04:32:33;6.80;;;3.55;;
31002;SDS011;23051;-6.372;106.786;2022-08-21T04:34:35;6.10;;;3.63;;
31002;SDS011;23051;-6.372;106.786;2022-08-21T04:36:36;7.38;;;3.70;;
31002;SDS011;23051;-6.372;106.786;2022-08-21T04:38:38;6.68;;;3.53;;
31002;SDS011;23051;-6.372;106.786;2022-08-21T04:40:43;7.32;;;4.15;;
31002;SDS011;23051;-6.372;106.786;2022-08-21T04:42:51;5.63;;;4.45;;
31002;SDS011;23051;-6.372;106.786;2022-08-21T04:47:00;6.55;;;5.80;;
31002;SDS011;23051;-6.372;106.786;2022-08-21T04:51:16;5.55;;;4.97;;
31002;SDS011;23051;-6.372;106.786;2022-08-21T04:53:23;6.47;;;4.60;;
31002;SDS011;23051;-6.372;106.786;2022-08-21T04:55:28;15.35;;;6.00;;
31002;SDS011;23051;-6.372;106.786;2022-08-21T04:57:33;8.00;;;3.88;;
31002;SDS011;23051;-6.372;106.786;2022-08-21T04:59:41;11.05;;;5.15;;
31002;SDS011;23051;-6.372;106.786;2022-08-21T05:01:44;5.30;;;2.92;;
31002;SDS011;23051;-6.372;106.786;2022-08-21T05:03:47;5.80;;;4.50;;
31002;SDS011;23051;-6.372;106.786;2022-08-21T05:05:52;8.30;;;3.25;;
31002;SDS011;23051;-6.372;106.786;2022-08-21T05:07:57;9.48;;;6.43;;
31002;SDS011;23051;-6.372;106.786;2022-08-21T05:12:05;6.85;;;5.10;;
31002;SDS011;23051;-6.372;106.786;2022-08-21T05:14:07;9.77;;;6.95;;
31002;SDS011;23051;-6.372;106.786;2022-08-21T05:16:09;6.75;;;4.50;;
31002;SDS011;23051;-6.372;106.786;2022-08-21T05:18:15;7.80;;;5.30;;
31002;SDS011;23051;-6.372;106.786;2022-08-21T05:20:19;5.45;;;3.80;;
31002;SDS011;23051;-6.372;106.786;2022-08-21T05:22:23;10.35;;;5.03;;
31002;SDS011;23051;-6.372;106.786;2022-08-21T05:24:27;10.73;;;4.75;;
31002;SDS011;23051;-6.372;106.786;2022-08-21T05:26:29;12.45;;;4.07;;
31002;SDS011;23051;-6.372;106.786;2022-08-21T05:28:31;14.18;;;5.55;;
31002;SDS011;23051;-6.372;106.786;2022-08-21T05:30:33;9.15;;;5.50;;
31002;SDS011;23051;-6.372;106.786;2022-08-21T05:32:37;14.30;;;5.13;;
31002;SDS011;23051;-6.372;106.786;2022-08-21T05:34:43;5.05;;;4.40;;
31002;SDS011;23051;-6.372;106.786;2022-08-21T05:36:45;8.65;;;5.32;;
31002;SDS011;23051;-6.372;106.786;2022-08-21T05:38:49;6.60;;;4.28;;
31002;SDS011;23051;-6.372;106.786;2022-08-21T05:40:53;4.40;;;3.20;;
31002;SDS011;23051;-6.372;106.786;2022-08-21T05:42:55;10.05;;;5.13;;
31002;SDS011;23051;-6.372;106.786;2022-08-21T05:44:57;6.32;;;4.65;;
31002;SDS011;23051;-6.372;106.786;2022-08-21T05:49:02;22.42;;;6.10;;
31002;SDS011;23051;-6.372;106.786;2022-08-21T05:51:14;6.20;;;4.38;;
31002;SDS011;23051;-6.372;106.786;2022-08-21T05:53:19;4.75;;;4.07;;
31002;SDS011;23051;-6.372;106.786;2022-08-21T05:55:21;4.65;;;3.65;;
31002;SDS011;23051;-6.372;106.786;2022-08-21T05:57:23;6.55;;;3.75;;
31002;SDS011;23051;-6.372;106.786;2022-08-21T05:59:25;4.55;;;3.17;;
31002;SDS011;23051;-6.372;106.786;2022-08-21T06:01:30;9.33;;;5.00;;
31002;SDS011;23051;-6.372;106.786;2022-08-21T06:03:35;5.68;;;5.18;;
31002;SDS011;23051;-6.372;106.786;2022-08-21T06:05:39;6.50;;;4.82;;
31002;SDS011;23051;-6.372;106.786;2022-08-21T06:07:45;4.53;;;3.42;;
31002;SDS011;23051;-6.372;106.786;2022-08-21T06:09:46;6.22;;;4.72;;
31002;SDS011;23051;-6.372;106.786;2022-08-21T06:11:50;6.07;;;4.43;;
31002;SDS011;23051;-6.372;106.786;2022-08-21T06:13:56;11.88;;;5.90;;
31002;SDS011;23051;-6.372;106.786;2022-08-21T06:16:03;3.95;;;3.30;;
31002;SDS011;23051;-6.372;106.786;2022-08-21T06:18:07;5.82;;;4.32;;
31002;SDS011;23051;-6.372;106.786;2022-08-21T06:20:11;4.53;;;3.05;;
31002;SDS011;23051;-6.372;106.786;2022-08-21T06:22:13;8.77;;;4.07;;
31002;SDS011;23051;-6.372;106.786;2022-08-21T06:24:17;7.72;;;4.95;;
31002;SDS011;23051;-6.372;106.786;2022-08-21T06:26:19;7.82;;;5.38;;
31002;SDS011;23051;-6.372;106.786;2022-08-21T06:28:21;8.20;;;4.22;;
31002;SDS011;23051;-6.372;106.786;2022-08-21T06:30:23;4.85;;;3.80;;
31002;SDS011;23051;-6.372;106.786;2022-08-21T06:32:25;9.65;;;4.68;;
31002;SDS011;23051;-6.372;106.786;2022-08-21T06:34:29;4.15;;;3.65;;
31002;SDS011;23051;-6.372;106.786;2022-08-21T06:36:33;8.93;;;4.97;;
31002;SDS011;23051;-6.372;106.786;2022-08-21T06:40:36;13.93;;;5.25;;
31002;SDS011;23051;-6.372;106.786;2022-08-21T06:42:40;4.00;;;3.55;;
31002;SDS011;23051;-6.372;106.786;2022-08-21T06:44:44;8.02;;;3.83;;
31002;SDS011;23051;-6.372;106.786;2022-08-21T06:46:48;8.82;;;5.05;;
31002;SDS011;23051;-6.372;106.786;2022-08-21T06:48:49;5.82;;;4.60;;
31002;SDS011;23051;-6.372;106.786;2022-08-21T06:50:54;8.10;;;4.97;;
31002;SDS011;23051;-6.372;106.786;2022-08-21T06:52:59;6.70;;;4.72;;
31002;SDS011;23051;-6.372;106.786;2022-08-21T06:55:05;6.55;;;4.53;;
31002;SDS011;23051;-6.372;106.786;2022-08-21T06:57:10;11.05;;;5.55;;
31002;SDS011;23051;-6.372;106.786;2022-08-21T06:59:11;6.45;;;4.97;;
31002;SDS011;23051;-6.372;106.786;2022-08-21T07:01:16;5.78;;;4.38;;
31002;SDS011;23051;-6.372;106.786;2022-08-21T07:03:22;6.43;;;4.65;;
31002;SDS011;23051;-6.372;106.786;2022-08-21T07:05:26;9.00;;;4.93;;
31002;SDS011;23051;-6.372;106.786;2022-08-21T07:07:27;8.82;;;3.53;;
31002;SDS011;23051;-6.372;106.786;2022-08-21T07:09:29;4.57;;;4.15;;
31002;SDS011;23051;-6.372;106.786;2022-08-21T07:11:31;5.28;;;3.85;;
31002;SDS011;23051;-6.372;106.786;2022-08-21T07:13:38;8.77;;;5.28;;
31002;SDS011;23051;-6.372;106.786;2022-08-21T07:15:40;9.18;;;5.20;;
31002;SDS011;23051;-6.372;106.786;2022-08-21T07:17:44;8.35;;;4.63;;
31002;SDS011;23051;-6.372;106.786;2022-08-21T07:19:48;6.72;;;5.30;;
31002;SDS011;23051;-6.372;106.786;2022-08-21T07:21:53;9.52;;;5.72;;
31002;SDS011;23051;-6.372;106.786;2022-08-21T07:23:57;9.93;;;6.18;;
31002;SDS011;23051;-6.372;106.786;2022-08-21T07:26:01;7.97;;;5.05;;
31002;SDS011;23051;-6.372;106.786;2022-08-21T07:28:03;13.80;;;6.78;;
31002;SDS011;23051;-6.372;106.786;2022-08-21T07:32:10;7.45;;;4.93;;
31002;SDS011;23051;-6.372;106.786;2022-08-21T07:34:12;9.73;;;4.43;;
31002;SDS011;23051;-6.372;106.786;2022-08-21T07:36:14;5.32;;;3.92;;
31002;SDS011;23051;-6.372;106.786;2022-08-21T07:38:20;9.55;;;7.45;;
31002;SDS011;23051;-6.372;106.786;2022-08-21T07:40:24;7.75;;;5.95;;
31002;SDS011;23051;-6.372;106.786;2022-08-21T07:42:26;5.15;;;4.68;;
31002;SDS011;23051;-6.372;106.786;2022-08-21T07:44:27;9.73;;;6.18;;
31002;SDS011;23051;-6.372;106.786;2022-08-21T07:46:34;10.50;;;6.32;;
31002;SDS011;23051;-6.372;106.786;2022-08-21T07:48:35;9.55;;;5.53;;
31002;SDS011;23051;-6.372;106.786;2022-08-21T07:50:38;4.40;;;3.42;;
31002;SDS011;23051;-6.372;106.786;2022-08-21T07:52:40;4.75;;;3.75;;
31002;SDS011;23051;-6.372;106.786;2022-08-21T07:54:42;6.60;;;5.30;;
31002;SDS011;23051;-6.372;106.786;2022-08-21T07:56:45;8.48;;;5.97;;
31002;SDS011;23051;-6.372;106.786;2022-08-21T07:58:47;12.90;;;5.35;;
31002;SDS011;23051;-6.372;106.786;2022-08-21T08:00:48;12.45;;;6.53;;
31002;SDS011;23051;-6.372;106.786;2022-08-21T08:02:53;16.45;;;5.03;;
31002;SDS011;23051;-6.372;106.786;2022-08-21T08:04:58;14.82;;;5.47;;
31002;SDS011;23051;-6.372;106.786;2022-08-21T08:07:01;9.43;;;6.35;;
31002;SDS011;23051;-6.372;106.786;2022-08-21T08:11:07;8.40;;;4.68;;
31002;SDS011;23051;-6.372;106.786;2022-08-21T08:13:11;5.53;;;4.82;;
31002;SDS011;23051;-6.372;106.786;2022-08-21T08:15:16;6.68;;;5.07;;
31002;SDS011;23051;-6.372;106.786;2022-08-21T08:17:18;6.05;;;4.90;;
31002;SDS011;23051;-6.372;106.786;2022-08-21T08:19:23;6.47;;;5.78;;
31002;SDS011;23051;-6.372;106.786;2022-08-21T08:21:25;4.03;;;3.67;;
31002;SDS011;23051;-6.372;106.786;2022-08-21T08:23:28;5.70;;;4.22;;
31002;SDS011;23051;-6.372;106.786;2022-08-21T08:25:33;7.72;;;6.18;;
31002;SDS011;23051;-6.372;106.786;2022-08-21T08:27:36;4.55;;;3.97;;
31002;SDS011;23051;-6.372;106.786;2022-08-21T08:29:38;9.10;;;4.25;;
31002;SDS011;23051;-6.372;106.786;2022-08-21T08:31:40;5.07;;;4.28;;
31002;SDS011;23051;-6.372;106.786;2022-08-21T08:33:42;9.00;;;4.18;;
31002;SDS011;23051;-6.372;106.786;2022-08-21T08:35:45;4.90;;;4.25;;
31002;SDS011;23051;-6.372;106.786;2022-08-21T08:37:47;9.52;;;4.40;;
31002;SDS011;23051;-6.372;106.786;2022-08-21T08:39:49;7.95;;;4.40;;
31002;SDS011;23051;-6.372;106.786;2022-08-21T08:41:53;9.25;;;4.85;;
31002;SDS011;23051;-6.372;106.786;2022-08-21T08:44:00;4.32;;;3.92;;
31002;SDS011;23051;-6.372;106.786;2022-08-21T08:46:04;11.10;;;6.45;;
31002;SDS011;23051;-6.372;106.786;2022-08-21T08:48:08;8.95;;;4.82;;
31002;SDS011;23051;-6.372;106.786;2022-08-21T08:50:12;8.95;;;3.75;;
31002;SDS011;23051;-6.372;106.786;2022-08-21T08:52:20;29.13;;;6.30;;
31002;SDS011;23051;-6.372;106.786;2022-08-21T08:54:35;6.60;;;4.82;;
31002;SDS011;23051;-6.372;106.786;2022-08-21T08:56:38;9.18;;;5.35;;
31002;SDS011;23051;-6.372;106.786;2022-08-21T08:58:40;4.72;;;4.32;;
31002;SDS011;23051;-6.372;106.786;2022-08-21T09:02:47;3.22;;;2.88;;
31002;SDS011;23051;-6.372;106.786;2022-08-21T09:04:55;4.45;;;3.72;;
31002;SDS011;23051;-6.372;106.786;2022-08-21T09:11:10;5.88;;;4.32;;
31002;SDS011;23051;-6.372;106.786;2022-08-21T09:19:49;7.82;;;3.53;;
31002;SDS011;23051;-6.372;106.786;2022-08-21T09:22:03;5.28;;;4.60;;
31002;SDS011;23051;-6.372;106.786;2022-08-21T09:26:19;4.75;;;4.32;;
31002;SDS011;23051;-6.372;106.786;2022-08-21T09:28:23;6.20;;;4.47;;
31002;SDS011;23051;-6.372;106.786;2022-08-21T09:30:29;17.73;;;6.75;;
31002;SDS011;23051;-6.372;106.786;2022-08-21T09:32:31;14.27;;;4.43;;
31002;SDS011;23051;-6.372;106.786;2022-08-21T09:34:36;7.82;;;5.07;;
31002;SDS011;23051;-6.372;106.786;2022-08-21T09:36:39;8.40;;;4.00;;
31002;SDS011;23051;-6.372;106.786;2022-08-21T09:38:51;4.38;;;3.92;;
31002;SDS011;23051;-6.372;106.786;2022-08-21T09:42:56;13.70;;;6.53;;
31002;SDS011;23051;-6.372;106.786;2022-08-21T09:47:01;5.13;;;4.05;;
31002;SDS011;23051;-6.372;106.786;2022-08-21T09:49:06;3.65;;;3.28;;
31002;SDS011;23051;-6.372;106.786;2022-08-21T09:51:09;6.30;;;3.72;;
31002;SDS011;23051;-6.372;106.786;2022-08-21T09:53:17;3.00;;;2.72;;
31002;SDS011;23051;-6.372;106.786;2022-08-21T09:57:24;4.03;;;3.72;;
31002;SDS011;23051;-6.372;106.786;2022-08-21T09:59:32;7.10;;;4.18;;
31002;SDS011;23051;-6.372;106.786;2022-08-21T10:01:41;14.38;;;4.88;;
31002;SDS011;23051;-6.372;106.786;2022-08-21T10:03:44;15.20;;;6.63;;
31002;SDS011;23051;-6.372;106.786;2022-08-21T10:07:52;4.07;;;3.67;;
31002;SDS011;23051;-6.372;106.786;2022-08-21T10:10:08;10.50;;;4.40;;
31002;SDS011;23051;-6.372;106.786;2022-08-21T10:16:21;11.13;;;4.57;;
31002;SDS011;23051;-6.372;106.786;2022-08-21T10:20:49;8.02;;;5.72;;
31002;SDS011;23051;-6.372;106.786;2022-08-21T10:33:13;8.90;;;5.60;;
31002;SDS011;23051;-6.372;106.786;2022-08-21T10:39:35;4.45;;;4.03;;
31002;SDS011;23051;-6.372;106.786;2022-08-21T10:41:43;5.90;;;4.22;;
31002;SDS011;23051;-6.372;106.786;2022-08-21T10:46:08;7.47;;;4.15;;
31002;SDS011;23051;-6.372;106.786;2022-08-21T10:50:42;15.07;;;4.75;;
31002;SDS011;23051;-6.372;106.786;2022-08-21T10:52:50;5.18;;;4.68;;
31002;SDS011;23051;-6.372;106.786;2022-08-21T10:55:00;7.28;;;5.43;;
31002;SDS011;23051;-6.372;106.786;2022-08-21T10:57:09;4.38;;;4.07;;
31002;SDS011;23051;-6.372;106.786;2022-08-21T11:01:27;6.03;;;3.47;;
31002;SDS011;23051;-6.372;106.786;2022-08-21T11:05:42;22.75;;;5.93;;
31002;SDS011;23051;-6.372;106.786;2022-08-21T11:07:47;3.08;;;2.78;;
31002;SDS011;23051;-6.372;106.786;2022-08-21T11:09:49;11.05;;;6.22;;
31002;SDS011;23051;-6.372;106.786;2022-08-21T11:11:56;6.90;;;3.70;;
31002;SDS011;23051;-6.372;106.786;2022-08-21T11:20:17;7.43;;;4.90;;
31002;SDS011;23051;-6.372;106.786;2022-08-21T11:28:38;7.45;;;3.65;;
31002;SDS011;23051;-6.372;106.786;2022-08-21T11:30:47;3.88;;;3.35;;
31002;SDS011;23051;-6.372;106.786;2022-08-21T11:33:00;5.78;;;4.15;;
31002;SDS011;23051;-6.372;106.786;2022-08-21T11:39:16;4.20;;;3.70;;
31002;SDS011;23051;-6.372;106.786;2022-08-21T11:49:36;4.18;;;3.72;;
31002;SDS011;23051;-6.372;106.786;2022-08-21T11:53:48;3.13;;;2.78;;
31002;SDS011;23051;-6.372;106.786;2022-08-21T11:55:59;5.22;;;3.20;;
31002;SDS011;23051;-6.372;106.786;2022-08-21T12:00:13;6.88;;;4.57;;
31002;SDS011;23051;-6.372;106.786;2022-08-21T12:02:18;5.50;;;3.72;;
31002;SDS011;23051;-6.372;106.786;2022-08-21T12:04:24;6.18;;;4.72;;
31002;SDS011;23051;-6.372;106.786;2022-08-21T12:06:30;10.77;;;5.75;;
31002;SDS011;23051;-6.372;106.786;2022-08-21T12:08:36;9.55;;;4.45;;
31002;SDS011;23051;-6.372;106.786;2022-08-21T12:10:40;3.97;;;3.08;;
31002;SDS011;23051;-6.372;106.786;2022-08-21T12:12:44;7.18;;;3.80;;
31002;SDS011;23051;-6.372;106.786;2022-08-21T12:14:50;5.43;;;4.13;;
31002;SDS011;23051;-6.372;106.786;2022-08-21T12:17:03;5.63;;;4.13;;
31002;SDS011;23051;-6.372;106.786;2022-08-21T12:19:13;4.40;;;3.80;;
31002;SDS011;23051;-6.372;106.786;2022-08-21T12:23:25;2.95;;;2.67;;
31002;SDS011;23051;-6.372;106.786;2022-08-21T12:25:35;4.45;;;4.05;;
31002;SDS011;23051;-6.372;106.786;2022-08-21T12:30:03;3.05;;;2.83;;
31002;SDS011;23051;-6.372;106.786;2022-08-21T12:34:10;3.03;;;2.80;;
31002;SDS011;23051;-6.372;106.786;2022-08-21T12:36:14;5.95;;;3.28;;
31002;SDS011;23051;-6.372;106.786;2022-08-21T12:42:27;3.38;;;3.08;;
31002;SDS011;23051;-6.372;106.786;2022-08-21T12:46:42;3.78;;;2.85;;
31002;SDS011;23051;-6.372;106.786;2022-08-21T12:50:52;8.98;;;4.03;;
31002;SDS011;23051;-6.372;106.786;2022-08-21T12:55:01;11.00;;;4.47;;
31002;SDS011;23051;-6.372;106.786;2022-08-21T12:57:04;6.18;;;5.03;;
31002;SDS011;23051;-6.372;106.786;2022-08-21T12:59:10;6.15;;;4.45;;
31002;SDS011;23051;-6.372;106.786;2022-08-21T13:03:22;11.35;;;3.45;;
31002;SDS011;23051;-6.372;106.786;2022-08-21T13:07:32;7.03;;;3.78;;
31002;SDS011;23051;-6.372;106.786;2022-08-21T13:09:38;3.55;;;2.67;;
31002;SDS011;23051;-6.372;106.786;2022-08-21T13:11:48;5.90;;;4.20;;
31002;SDS011;23051;-6.372;106.786;2022-08-21T13:13:50;3.05;;;2.00;;
31002;SDS011;23051;-6.372;106.786;2022-08-21T13:16:02;2.38;;;2.15;;
31002;SDS011;23051;-6.372;106.786;2022-08-21T13:18:06;6.70;;;3.50;;
31002;SDS011;23051;-6.372;106.786;2022-08-21T13:20:09;7.15;;;3.40;;
31002;SDS011;23051;-6.372;106.786;2022-08-21T13:22:12;4.97;;;3.13;;
31002;SDS011;23051;-6.372;106.786;2022-08-21T13:24:20;4.25;;;3.92;;
31002;SDS011;23051;-6.372;106.786;2022-08-21T13:26:25;2.38;;;2.25;;
31002;SDS011;23051;-6.372;106.786;2022-08-21T13:28:32;5.85;;;2.75;;
31002;SDS011;23051;-6.372;106.786;2022-08-21T13:30:37;5.05;;;3.17;;
31002;SDS011;23051;-6.372;106.786;2022-08-21T13:34:46;4.25;;;3.80;;
31002;SDS011;23051;-6.372;106.786;2022-08-21T13:36:50;4.25;;;2.72;;
31002;SDS011;23051;-6.372;106.786;2022-08-21T13:38:53;8.05;;;2.88;;
31002;SDS011;23051;-6.372;106.786;2022-08-21T13:40:59;7.47;;;2.97;;
31002;SDS011;23051;-6.372;106.786;2022-08-21T13:43:04;1.65;;;1.55;;
31002;SDS011;23051;-6.372;106.786;2022-08-21T13:45:14;1.80;;;1.70;;
31002;SDS011;23051;-6.372;106.786;2022-08-21T13:47:16;13.23;;;2.72;;
31002;SDS011;23051;-6.372;106.786;2022-08-21T13:49:21;3.78;;;2.58;;
31002;SDS011;23051;-6.372;106.786;2022-08-21T13:51:27;3.83;;;2.97;;
31002;SDS011;23051;-6.372;106.786;2022-08-21T13:53:33;7.57;;;3.25;;
31002;SDS011;23051;-6.372;106.786;2022-08-21T13:55:38;2.45;;;2.25;;
31002;SDS011;23051;-6.372;106.786;2022-08-21T13:57:42;4.45;;;3.13;;
31002;SDS011;23051;-6.372;106.786;2022-08-21T13:59:49;3.15;;;2.75;;
31002;SDS011;23051;-6.372;106.786;2022-08-21T14:01:55;5.07;;;3.35;;
31002;SDS011;23051;-6.372;106.786;2022-08-21T14:04:07;2.03;;;1.92;;
31002;SDS011;23051;-6.372;106.786;2022-08-21T14:08:37;8.75;;;3.22;;
31002;SDS011;23051;-6.372;106.786;2022-08-21T14:10:45;6.00;;;3.78;;
31002;SDS011;23051;-6.372;106.786;2022-08-21T14:23:02;3.92;;;2.58;;
31002;SDS011;23051;-6.372;106.786;2022-08-21T14:25:13;3.20;;;1.95;;
31002;SDS011;23051;-6.372;106.786;2022-08-21T14:27:17;2.17;;;2.00;;
31002;SDS011;23051;-6.372;106.786;2022-08-21T14:29:24;3.35;;;2.45;;
31002;SDS011;23051;-6.372;106.786;2022-08-21T14:31:29;7.22;;;3.08;;
31002;SDS011;23051;-6.372;106.786;2022-08-21T14:35:34;3.75;;;3.33;;
31002;SDS011;23051;-6.372;106.786;2022-08-21T14:37:40;2.35;;;1.83;;